sensor_id;sensor_type;location;lat;lon;timestamp;P1;durP1;ratioP1;P2;durP2;ratioP2
982;SDS011;480;48.124;11.578;2022-07-29T00:01:46;1.90;;;1.67;;
982;SDS011;480;48.124;11.578;2022-07-29T00:04:13;1.50;;;1.40;;
982;SDS011;480;48.124;11.578;2022-07-29T00:06:40;1.10;;;1.10;;
982;SDS011;480;48.124;11.578;2022-07-29T00:09:09;1.80;;;1.70;;
982;SDS011;480;48.124;11.578;2022-07-29T00:11:36;1.43;;;1.10;;
982;SDS011;480;48.124;11.578;2022-07-29T00:14:03;1.70;;;1.60;;
982;SDS011;480;48.124;11.578;2022-07-29T00:16:31;1.70;;;1.60;;
982;SDS011;480;48.124;11.578;2022-07-29T00:18:58;1.40;;;1.23;;
982;SDS011;480;48.124;11.578;2022-07-29T00:21:25;2.80;;;1.90;;
982;SDS011;480;48.124;11.578;2022-07-29T00:23:52;1.60;;;1.50;;
982;SDS011;480;48.124;11.578;2022-07-29T00:26:21;3.10;;;1.70;;
982;SDS011;480;48.124;11.578;2022-07-29T00:28:48;3.80;;;1.70;;
982;SDS011;480;48.124;11.578;2022-07-29T00:31:15;1.80;;;1.70;;
982;SDS011;480;48.124;11.578;2022-07-29T00:33:42;2.13;;;1.50;;
982;SDS011;480;48.124;11.578;2022-07-29T00:36:09;1.50;;;1.40;;
982;SDS011;480;48.124;11.578;2022-07-29T00:38:34;2.20;;;1.70;;
982;SDS011;480;48.124;11.578;2022-07-29T00:41:01;1.53;;;1.43;;
982;SDS011;480;48.124;11.578;2022-07-29T00:43:30;1.33;;;1.23;;
982;SDS011;480;48.124;11.578;2022-07-29T00:45:57;1.40;;;1.30;;
982;SDS011;480;48.124;11.578;2022-07-29T00:48:24;2.23;;;1.90;;
982;SDS011;480;48.124;11.578;2022-07-29T00:50:51;4.10;;;1.47;;
982;SDS011;480;48.124;11.578;2022-07-29T00:53:18;1.50;;;1.40;;
982;SDS011;480;48.124;11.578;2022-07-29T00:55:46;1.47;;;1.37;;
982;SDS011;480;48.124;11.578;2022-07-29T00:58:13;1.67;;;1.57;;
982;SDS011;480;48.124;11.578;2022-07-29T01:00:42;1.10;;;1.00;;
982;SDS011;480;48.124;11.578;2022-07-29T01:03:09;1.23;;;1.10;;
982;SDS011;480;48.124;11.578;2022-07-29T01:05:36;1.60;;;1.50;;
982;SDS011;480;48.124;11.578;2022-07-29T01:08:05;1.40;;;1.30;;
982;SDS011;480;48.124;11.578;2022-07-29T01:10:32;1.63;;;1.53;;
982;SDS011;480;48.124;11.578;2022-07-29T01:13:02;1.30;;;1.20;;
982;SDS011;480;48.124;11.578;2022-07-29T01:15:30;1.53;;;1.43;;
982;SDS011;480;48.124;11.578;2022-07-29T01:18:01;1.53;;;1.43;;
982;SDS011;480;48.124;11.578;2022-07-29T01:23:40;1.10;;;1.10;;
982;SDS011;480;48.124;11.578;2022-07-29T01:26:28;1.67;;;1.20;;
982;SDS011;480;48.124;11.578;2022-07-29T01:29:03;1.67;;;1.47;;
982;SDS011;480;48.124;11.578;2022-07-29T01:31:39;1.50;;;1.40;;
982;SDS011;480;48.124;11.578;2022-07-29T01:34:11;1.67;;;1.57;;
982;SDS011;480;48.124;11.578;2022-07-29T01:36:47;1.40;;;1.30;;
982;SDS011;480;48.124;11.578;2022-07-29T01:39:18;1.07;;;1.07;;
982;SDS011;480;48.124;11.578;2022-07-29T01:41:50;1.00;;;1.00;;
982;SDS011;480;48.124;11.578;2022-07-29T01:44:30;1.20;;;1.00;;
982;SDS011;480;48.124;11.578;2022-07-29T01:47:01;1.00;;;0.83;;
982;SDS011;480;48.124;11.578;2022-07-29T01:49:33;1.27;;;1.17;;
982;SDS011;480;48.124;11.578;2022-07-29T01:52:07;1.40;;;1.30;;
982;SDS011;480;48.124;11.578;2022-07-29T01:54:39;0.90;;;0.90;;
982;SDS011;480;48.124;11.578;2022-07-29T01:57:11;1.20;;;1.00;;
982;SDS011;480;48.124;11.578;2022-07-29T01:59:41;1.47;;;1.03;;
982;SDS011;480;48.124;11.578;2022-07-29T02:02:11;1.03;;;1.00;;
982;SDS011;480;48.124;11.578;2022-07-29T02:04:41;1.33;;;1.23;;
982;SDS011;480;48.124;11.578;2022-07-29T02:07:13;1.20;;;1.10;;
982;SDS011;480;48.124;11.578;2022-07-29T02:09:44;1.40;;;1.10;;
982;SDS011;480;48.124;11.578;2022-07-29T02:12:13;1.00;;;1.00;;
982;SDS011;480;48.124;11.578;2022-07-29T02:14:44;1.07;;;1.00;;
982;SDS011;480;48.124;11.578;2022-07-29T02:17:13;1.10;;;1.10;;
982;SDS011;480;48.124;11.578;2022-07-29T02:19:47;1.43;;;1.33;;
982;SDS011;480;48.124;11.578;2022-07-29T02:22:14;1.30;;;1.20;;
982;SDS011;480;48.124;11.578;2022-07-29T02:24:44;1.20;;;1.10;;
982;SDS011;480;48.124;11.578;2022-07-29T02:27:13;1.13;;;1.10;;
982;SDS011;480;48.124;11.578;2022-07-29T02:29:41;1.17;;;1.10;;
982;SDS011;480;48.124;11.578;2022-07-29T02:32:11;2.67;;;1.43;;
982;SDS011;480;48.124;11.578;2022-07-29T02:34:40;1.10;;;1.00;;
982;SDS011;480;48.124;11.578;2022-07-29T02:37:09;1.27;;;1.17;;
982;SDS011;480;48.124;11.578;2022-07-29T02:39:37;1.27;;;1.20;;
982;SDS011;480;48.124;11.578;2022-07-29T02:42:07;1.13;;;1.03;;
982;SDS011;480;48.124;11.578;2022-07-29T02:44:37;0.80;;;0.80;;
982;SDS011;480;48.124;11.578;2022-07-29T02:47:11;1.33;;;1.07;;
982;SDS011;480;48.124;11.578;2022-07-29T02:49:47;1.20;;;0.93;;
982;SDS011;480;48.124;11.578;2022-07-29T02:52:20;3.90;;;1.30;;
982;SDS011;480;48.124;11.578;2022-07-29T02:54:51;1.20;;;1.10;;
982;SDS011;480;48.124;11.578;2022-07-29T02:57:21;0.80;;;0.70;;
982;SDS011;480;48.124;11.578;2022-07-29T02:59:56;1.47;;;1.37;;
982;SDS011;480;48.124;11.578;2022-07-29T03:02:29;1.73;;;1.63;;
982;SDS011;480;48.124;11.578;2022-07-29T03:05:00;1.27;;;1.20;;
982;SDS011;480;48.124;11.578;2022-07-29T03:07:29;1.17;;;1.07;;
982;SDS011;480;48.124;11.578;2022-07-29T03:09:57;1.90;;;1.00;;
982;SDS011;480;48.124;11.578;2022-07-29T03:12:25;1.40;;;1.30;;
982;SDS011;480;48.124;11.578;2022-07-29T03:14:53;1.87;;;1.40;;
982;SDS011;480;48.124;11.578;2022-07-29T03:17:21;1.30;;;1.20;;
982;SDS011;480;48.124;11.578;2022-07-29T03:19:50;1.50;;;1.20;;
982;SDS011;480;48.124;11.578;2022-07-29T03:22:18;1.27;;;1.20;;
982;SDS011;480;48.124;11.578;2022-07-29T03:24:45;1.47;;;1.37;;
982;SDS011;480;48.124;11.578;2022-07-29T03:27:12;1.40;;;1.20;;
982;SDS011;480;48.124;11.578;2022-07-29T03:29:39;1.23;;;1.13;;
982;SDS011;480;48.124;11.578;2022-07-29T03:32:06;1.60;;;1.47;;
982;SDS011;480;48.124;11.578;2022-07-29T03:34:34;3.60;;;1.17;;
982;SDS011;480;48.124;11.578;2022-07-29T03:37:04;1.50;;;1.40;;
982;SDS011;480;48.124;11.578;2022-07-29T03:39:33;1.90;;;1.33;;
982;SDS011;480;48.124;11.578;2022-07-29T03:42:02;2.93;;;1.00;;
982;SDS011;480;48.124;11.578;2022-07-29T03:44:31;1.70;;;1.10;;
982;SDS011;480;48.124;11.578;2022-07-29T03:46:59;1.20;;;1.10;;
982;SDS011;480;48.124;11.578;2022-07-29T03:49:27;1.70;;;1.57;;
982;SDS011;480;48.124;11.578;2022-07-29T03:51:57;1.07;;;0.97;;
982;SDS011;480;48.124;11.578;2022-07-29T03:54:25;1.50;;;1.40;;
982;SDS011;480;48.124;11.578;2022-07-29T03:56:53;1.23;;;1.13;;
982;SDS011;480;48.124;11.578;2022-07-29T03:59:23;1.00;;;1.00;;
982;SDS011;480;48.124;11.578;2022-07-29T04:01:50;1.30;;;1.20;;
982;SDS011;480;48.124;11.578;2022-07-29T04:04:17;1.60;;;1.50;;
982;SDS011;480;48.124;11.578;2022-07-29T04:06:45;1.30;;;1.20;;
982;SDS011;480;48.124;11.578;2022-07-29T04:09:12;5.13;;;1.13;;
982;SDS011;480;48.124;11.578;2022-07-29T04:11:41;1.40;;;1.30;;
982;SDS011;480;48.124;11.578;2022-07-29T04:14:08;1.17;;;1.07;;
982;SDS011;480;48.124;11.578;2022-07-29T04:16:35;1.93;;;1.73;;
982;SDS011;480;48.124;11.578;2022-07-29T04:19:02;1.20;;;1.10;;
982;SDS011;480;48.124;11.578;2022-07-29T04:21:29;1.50;;;1.40;;
982;SDS011;480;48.124;11.578;2022-07-29T04:23:56;3.17;;;1.30;;
982;SDS011;480;48.124;11.578;2022-07-29T04:26:23;1.37;;;1.27;;
982;SDS011;480;48.124;11.578;2022-07-29T04:28:52;1.37;;;1.27;;
982;SDS011;480;48.124;11.578;2022-07-29T04:31:19;1.10;;;1.03;;
982;SDS011;480;48.124;11.578;2022-07-29T04:33:46;1.40;;;1.30;;
982;SDS011;480;48.124;11.578;2022-07-29T04:36:13;1.00;;;1.00;;
982;SDS011;480;48.124;11.578;2022-07-29T04:38:40;2.20;;;1.60;;
982;SDS011;480;48.124;11.578;2022-07-29T04:41:07;1.87;;;1.50;;
982;SDS011;480;48.124;11.578;2022-07-29T04:43:34;1.60;;;1.50;;
982;SDS011;480;48.124;11.578;2022-07-29T04:46:03;1.43;;;1.33;;
982;SDS011;480;48.124;11.578;2022-07-29T04:48:32;1.47;;;1.37;;
982;SDS011;480;48.124;11.578;2022-07-29T04:50:59;1.80;;;1.50;;
982;SDS011;480;48.124;11.578;2022-07-29T04:53:26;1.50;;;1.40;;
982;SDS011;480;48.124;11.578;2022-07-29T04:55:53;2.10;;;1.80;;
982;SDS011;480;48.124;11.578;2022-07-29T04:58:20;2.13;;;1.57;;
982;SDS011;480;48.124;11.578;2022-07-29T05:00:48;1.80;;;1.37;;
982;SDS011;480;48.124;11.578;2022-07-29T05:03:17;1.30;;;1.20;;
982;SDS011;480;48.124;11.578;2022-07-29T05:05:44;1.47;;;1.37;;
982;SDS011;480;48.124;11.578;2022-07-29T05:08:11;1.67;;;1.30;;
982;SDS011;480;48.124;11.578;2022-07-29T05:10:39;2.00;;;1.80;;
982;SDS011;480;48.124;11.578;2022-07-29T05:13:06;1.73;;;1.20;;
982;SDS011;480;48.124;11.578;2022-07-29T05:15:33;1.97;;;1.20;;
982;SDS011;480;48.124;11.578;2022-07-29T05:18:01;1.47;;;1.30;;
982;SDS011;480;48.124;11.578;2022-07-29T05:20:30;1.33;;;1.23;;
982;SDS011;480;48.124;11.578;2022-07-29T05:22:58;1.43;;;1.33;;
982;SDS011;480;48.124;11.578;2022-07-29T05:25:26;1.73;;;1.60;;
982;SDS011;480;48.124;11.578;2022-07-29T05:27:54;1.43;;;1.33;;
982;SDS011;480;48.124;11.578;2022-07-29T05:30:21;1.27;;;1.17;;
982;SDS011;480;48.124;11.578;2022-07-29T05:32:49;1.80;;;1.70;;
982;SDS011;480;48.124;11.578;2022-07-29T05:35:16;1.70;;;1.60;;
982;SDS011;480;48.124;11.578;2022-07-29T05:37:44;3.87;;;2.17;;
982;SDS011;480;48.124;11.578;2022-07-29T05:40:11;1.60;;;1.50;;
982;SDS011;480;48.124;11.578;2022-07-29T05:42:38;1.97;;;1.77;;
982;SDS011;480;48.124;11.578;2022-07-29T05:45:05;2.03;;;1.93;;
982;SDS011;480;48.124;11.578;2022-07-29T05:47:33;2.50;;;1.70;;
982;SDS011;480;48.124;11.578;2022-07-29T05:50:00;1.80;;;1.70;;
982;SDS011;480;48.124;11.578;2022-07-29T05:52:27;2.10;;;1.90;;
982;SDS011;480;48.124;11.578;2022-07-29T05:54:55;1.80;;;1.70;;
982;SDS011;480;48.124;11.578;2022-07-29T05:57:23;1.63;;;1.53;;
982;SDS011;480;48.124;11.578;2022-07-29T05:59:51;1.90;;;1.80;;
982;SDS011;480;48.124;11.578;2022-07-29T06:02:20;2.03;;;1.93;;
982;SDS011;480;48.124;11.578;2022-07-29T06:04:47;2.37;;;1.80;;
982;SDS011;480;48.124;11.578;2022-07-29T06:07:14;1.67;;;1.43;;
982;SDS011;480;48.124;11.578;2022-07-29T06:09:41;1.63;;;1.53;;
982;SDS011;480;48.124;11.578;2022-07-29T06:12:10;1.83;;;1.73;;
982;SDS011;480;48.124;11.578;2022-07-29T06:14:37;1.77;;;1.67;;
982;SDS011;480;48.124;11.578;2022-07-29T06:17:04;2.13;;;2.00;;
982;SDS011;480;48.124;11.578;2022-07-29T06:19:33;1.93;;;1.67;;
982;SDS011;480;48.124;11.578;2022-07-29T06:22:01;1.50;;;1.37;;
982;SDS011;480;48.124;11.578;2022-07-29T06:24:28;3.60;;;1.80;;
982;SDS011;480;48.124;11.578;2022-07-29T06:26:55;2.00;;;1.90;;
982;SDS011;480;48.124;11.578;2022-07-29T06:29:24;2.63;;;1.80;;
982;SDS011;480;48.124;11.578;2022-07-29T06:31:51;1.90;;;1.80;;
982;SDS011;480;48.124;11.578;2022-07-29T06:34:18;2.53;;;1.60;;
982;SDS011;480;48.124;11.578;2022-07-29T06:36:45;1.47;;;1.37;;
982;SDS011;480;48.124;11.578;2022-07-29T06:39:12;2.17;;;1.40;;
982;SDS011;480;48.124;11.578;2022-07-29T06:41:39;1.90;;;1.80;;
982;SDS011;480;48.124;11.578;2022-07-29T06:44:06;1.97;;;1.80;;
982;SDS011;480;48.124;11.578;2022-07-29T06:46:35;2.70;;;1.93;;
982;SDS011;480;48.124;11.578;2022-07-29T06:49:02;2.43;;;2.23;;
982;SDS011;480;48.124;11.578;2022-07-29T06:51:29;1.60;;;1.50;;
982;SDS011;480;48.124;11.578;2022-07-29T06:53:56;1.63;;;1.53;;
982;SDS011;480;48.124;11.578;2022-07-29T06:56:23;1.60;;;1.50;;
982;SDS011;480;48.124;11.578;2022-07-29T06:58:51;2.00;;;1.80;;
982;SDS011;480;48.124;11.578;2022-07-29T07:01:18;2.67;;;2.17;;
982;SDS011;480;48.124;11.578;2022-07-29T07:03:50;1.70;;;1.60;;
982;SDS011;480;48.124;11.578;2022-07-29T07:06:18;2.20;;;2.07;;
982;SDS011;480;48.124;11.578;2022-07-29T07:08:45;2.70;;;2.20;;
982;SDS011;480;48.124;11.578;2022-07-29T07:11:13;2.23;;;1.80;;
982;SDS011;480;48.124;11.578;2022-07-29T07:13:40;1.80;;;1.70;;
982;SDS011;480;48.124;11.578;2022-07-29T07:16:07;1.87;;;1.73;;
982;SDS011;480;48.124;11.578;2022-07-29T07:18:34;2.50;;;2.00;;
982;SDS011;480;48.124;11.578;2022-07-29T07:21:02;1.83;;;1.73;;
982;SDS011;480;48.124;11.578;2022-07-29T07:23:30;1.93;;;1.83;;
982;SDS011;480;48.124;11.578;2022-07-29T07:25:57;2.67;;;2.47;;
982;SDS011;480;48.124;11.578;2022-07-29T07:28:24;1.50;;;1.40;;
982;SDS011;480;48.124;11.578;2022-07-29T07:30:51;1.90;;;1.80;;
982;SDS011;480;48.124;11.578;2022-07-29T07:33:18;5.50;;;1.70;;
982;SDS011;480;48.124;11.578;2022-07-29T07:35:45;2.93;;;2.67;;
982;SDS011;480;48.124;11.578;2022-07-29T07:38:14;5.13;;;2.47;;
982;SDS011;480;48.124;11.578;2022-07-29T07:40:41;1.60;;;1.50;;
982;SDS011;480;48.124;11.578;2022-07-29T07:43:08;1.30;;;1.20;;
982;SDS011;480;48.124;11.578;2022-07-29T07:45:35;1.63;;;1.53;;
982;SDS011;480;48.124;11.578;2022-07-29T07:48:03;1.57;;;1.47;;
982;SDS011;480;48.124;11.578;2022-07-29T07:50:31;2.00;;;1.90;;
982;SDS011;480;48.124;11.578;2022-07-29T07:53:01;2.00;;;1.57;;
982;SDS011;480;48.124;11.578;2022-07-29T07:55:31;3.10;;;1.73;;
982;SDS011;480;48.124;11.578;2022-07-29T07:57:59;1.63;;;1.50;;
982;SDS011;480;48.124;11.578;2022-07-29T08:00:26;1.93;;;1.47;;
982;SDS011;480;48.124;11.578;2022-07-29T08:02:53;1.57;;;1.47;;
982;SDS011;480;48.124;11.578;2022-07-29T08:05:21;1.70;;;1.53;;
982;SDS011;480;48.124;11.578;2022-07-29T08:07:48;1.50;;;1.40;;
982;SDS011;480;48.124;11.578;2022-07-29T08:10:15;1.77;;;1.67;;
982;SDS011;480;48.124;11.578;2022-07-29T08:13:06;1.50;;;1.40;;
982;SDS011;480;48.124;11.578;2022-07-29T08:15:36;1.37;;;1.27;;
982;SDS011;480;48.124;11.578;2022-07-29T08:18:05;1.70;;;1.60;;
982;SDS011;480;48.124;11.578;2022-07-29T08:20:32;1.57;;;1.47;;
982;SDS011;480;48.124;11.578;2022-07-29T08:23:00;5.03;;;1.33;;
982;SDS011;480;48.124;11.578;2022-07-29T08:25:27;1.70;;;1.60;;
982;SDS011;480;48.124;11.578;2022-07-29T08:27:55;1.80;;;1.70;;
982;SDS011;480;48.124;11.578;2022-07-29T08:30:23;1.67;;;1.57;;
982;SDS011;480;48.124;11.578;2022-07-29T08:32:50;2.20;;;2.10;;
982;SDS011;480;48.124;11.578;2022-07-29T08:35:18;1.90;;;1.77;;
982;SDS011;480;48.124;11.578;2022-07-29T08:37:46;2.53;;;2.20;;
982;SDS011;480;48.124;11.578;2022-07-29T08:40:16;2.20;;;1.60;;
982;SDS011;480;48.124;11.578;2022-07-29T08:42:43;1.70;;;1.60;;
982;SDS011;480;48.124;11.578;2022-07-29T08:45:13;2.47;;;2.27;;
982;SDS011;480;48.124;11.578;2022-07-29T08:47:42;2.20;;;2.00;;
982;SDS011;480;48.124;11.578;2022-07-29T08:50:11;1.70;;;1.60;;
982;SDS011;480;48.124;11.578;2022-07-29T08:52:40;2.17;;;2.07;;
982;SDS011;480;48.124;11.578;2022-07-29T08:55:08;2.20;;;2.00;;
982;SDS011;480;48.124;11.578;2022-07-29T08:57:37;3.50;;;1.63;;
982;SDS011;480;48.124;11.578;2022-07-29T09:00:06;2.03;;;1.70;;
982;SDS011;480;48.124;11.578;2022-07-29T09:02:38;1.93;;;1.83;;
982;SDS011;480;48.124;11.578;2022-07-29T09:05:08;3.20;;;2.90;;
982;SDS011;480;48.124;11.578;2022-07-29T09:07:35;2.63;;;2.43;;
982;SDS011;480;48.124;11.578;2022-07-29T09:10:03;2.73;;;2.37;;
982;SDS011;480;48.124;11.578;2022-07-29T09:12:32;2.63;;;2.43;;
982;SDS011;480;48.124;11.578;2022-07-29T09:14:59;2.50;;;2.30;;
982;SDS011;480;48.124;11.578;2022-07-29T09:17:41;2.77;;;2.27;;
982;SDS011;480;48.124;11.578;2022-07-29T09:20:12;3.00;;;1.90;;
982;SDS011;480;48.124;11.578;2022-07-29T09:22:41;3.50;;;2.47;;
982;SDS011;480;48.124;11.578;2022-07-29T09:25:08;2.30;;;1.90;;
982;SDS011;480;48.124;11.578;2022-07-29T09:27:39;12.60;;;10.50;;
982;SDS011;480;48.124;11.578;2022-07-29T09:30:07;5.77;;;5.27;;
982;SDS011;480;48.124;11.578;2022-07-29T09:35:23;2.53;;;2.40;;
982;SDS011;480;48.124;11.578;2022-07-29T09:37:52;2.90;;;2.70;;
982;SDS011;480;48.124;11.578;2022-07-29T09:40:19;2.40;;;2.30;;
982;SDS011;480;48.124;11.578;2022-07-29T09:42:48;2.50;;;2.30;;
982;SDS011;480;48.124;11.578;2022-07-29T09:45:25;3.33;;;3.20;;
982;SDS011;480;48.124;11.578;2022-07-29T09:47:54;2.20;;;2.10;;
982;SDS011;480;48.124;11.578;2022-07-29T09:50:35;2.50;;;2.40;;
982;SDS011;480;48.124;11.578;2022-07-29T09:53:04;3.30;;;3.10;;
982;SDS011;480;48.124;11.578;2022-07-29T09:55:31;3.70;;;2.80;;
982;SDS011;480;48.124;11.578;2022-07-29T09:58:14;2.87;;;2.60;;
982;SDS011;480;48.124;11.578;2022-07-29T10:00:42;2.73;;;2.53;;
982;SDS011;480;48.124;11.578;2022-07-29T10:03:11;2.83;;;2.63;;
982;SDS011;480;48.124;11.578;2022-07-29T10:05:42;2.50;;;2.30;;
982;SDS011;480;48.124;11.578;2022-07-29T10:08:11;3.80;;;3.03;;
982;SDS011;480;48.124;11.578;2022-07-29T10:10:39;2.93;;;2.73;;
982;SDS011;480;48.124;11.578;2022-07-29T10:13:08;3.20;;;2.90;;
982;SDS011;480;48.124;11.578;2022-07-29T10:15:39;8.60;;;3.87;;
982;SDS011;480;48.124;11.578;2022-07-29T10:18:09;2.90;;;2.70;;
982;SDS011;480;48.124;11.578;2022-07-29T10:20:37;3.10;;;2.90;;
982;SDS011;480;48.124;11.578;2022-07-29T10:23:06;3.93;;;3.10;;
982;SDS011;480;48.124;11.578;2022-07-29T10:25:34;3.73;;;2.97;;
982;SDS011;480;48.124;11.578;2022-07-29T10:28:02;3.20;;;2.40;;
982;SDS011;480;48.124;11.578;2022-07-29T10:30:29;2.97;;;2.67;;
982;SDS011;480;48.124;11.578;2022-07-29T10:33:01;2.77;;;2.57;;
982;SDS011;480;48.124;11.578;2022-07-29T10:35:51;3.00;;;2.80;;
982;SDS011;480;48.124;11.578;2022-07-29T10:38:37;2.90;;;2.70;;
982;SDS011;480;48.124;11.578;2022-07-29T10:44:08;3.30;;;2.53;;
982;SDS011;480;48.124;11.578;2022-07-29T10:46:44;2.67;;;2.47;;
982;SDS011;480;48.124;11.578;2022-07-29T10:49:13;2.73;;;2.53;;
982;SDS011;480;48.124;11.578;2022-07-29T10:51:51;2.63;;;2.40;;
982;SDS011;480;48.124;11.578;2022-07-29T10:57:12;2.90;;;2.60;;
982;SDS011;480;48.124;11.578;2022-07-29T10:59:40;3.07;;;2.77;;
982;SDS011;480;48.124;11.578;2022-07-29T11:05:16;2.80;;;2.60;;
982;SDS011;480;48.124;11.578;2022-07-29T11:10:47;3.17;;;2.70;;
982;SDS011;480;48.124;11.578;2022-07-29T11:16:13;3.23;;;2.90;;
982;SDS011;480;48.124;11.578;2022-07-29T11:21:45;2.40;;;2.20;;
982;SDS011;480;48.124;11.578;2022-07-29T11:24:15;3.43;;;3.13;;
982;SDS011;480;48.124;11.578;2022-07-29T11:26:45;3.23;;;2.97;;
982;SDS011;480;48.124;11.578;2022-07-29T11:29:32;2.60;;;2.40;;
982;SDS011;480;48.124;11.578;2022-07-29T11:32:07;4.80;;;2.70;;
982;SDS011;480;48.124;11.578;2022-07-29T11:34:36;2.87;;;2.67;;
982;SDS011;480;48.124;11.578;2022-07-29T11:37:18;2.63;;;2.43;;
982;SDS011;480;48.124;11.578;2022-07-29T11:40:10;2.90;;;2.50;;
982;SDS011;480;48.124;11.578;2022-07-29T11:42:41;3.80;;;2.87;;
982;SDS011;480;48.124;11.578;2022-07-29T11:45:14;2.50;;;2.30;;
982;SDS011;480;48.124;11.578;2022-07-29T11:47:46;8.63;;;2.97;;
982;SDS011;480;48.124;11.578;2022-07-29T11:50:18;7.17;;;2.83;;
982;SDS011;480;48.124;11.578;2022-07-29T11:52:54;3.23;;;2.73;;
982;SDS011;480;48.124;11.578;2022-07-29T11:55:22;2.93;;;2.73;;
982;SDS011;480;48.124;11.578;2022-07-29T11:57:52;2.80;;;2.50;;
982;SDS011;480;48.124;11.578;2022-07-29T12:00:23;3.20;;;2.80;;
982;SDS011;480;48.124;11.578;2022-07-29T12:02:52;5.80;;;3.17;;
982;SDS011;480;48.124;11.578;2022-07-29T12:05:20;3.20;;;2.90;;
982;SDS011;480;48.124;11.578;2022-07-29T12:07:58;2.70;;;2.50;;
982;SDS011;480;48.124;11.578;2022-07-29T12:10:34;3.60;;;2.70;;
982;SDS011;480;48.124;11.578;2022-07-29T12:13:03;2.80;;;2.70;;
982;SDS011;480;48.124;11.578;2022-07-29T12:15:31;3.20;;;3.00;;
982;SDS011;480;48.124;11.578;2022-07-29T12:17:58;2.73;;;2.53;;
982;SDS011;480;48.124;11.578;2022-07-29T12:20:35;3.17;;;2.97;;
982;SDS011;480;48.124;11.578;2022-07-29T12:23:04;3.77;;;2.80;;
982;SDS011;480;48.124;11.578;2022-07-29T12:25:33;4.83;;;2.40;;
982;SDS011;480;48.124;11.578;2022-07-29T12:28:02;3.37;;;2.93;;
982;SDS011;480;48.124;11.578;2022-07-29T12:30:35;3.03;;;2.80;;
982;SDS011;480;48.124;11.578;2022-07-29T12:33:15;4.57;;;2.77;;
982;SDS011;480;48.124;11.578;2022-07-29T12:35:44;2.93;;;2.73;;
982;SDS011;480;48.124;11.578;2022-07-29T12:38:13;2.73;;;2.53;;
982;SDS011;480;48.124;11.578;2022-07-29T12:40:42;5.40;;;2.60;;
982;SDS011;480;48.124;11.578;2022-07-29T12:43:12;3.80;;;3.10;;
982;SDS011;480;48.124;11.578;2022-07-29T12:45:44;3.43;;;3.13;;
982;SDS011;480;48.124;11.578;2022-07-29T12:48:13;2.93;;;2.73;;
982;SDS011;480;48.124;11.578;2022-07-29T12:50:53;3.07;;;2.77;;
982;SDS011;480;48.124;11.578;2022-07-29T12:53:22;4.53;;;2.70;;
982;SDS011;480;48.124;11.578;2022-07-29T12:55:50;3.73;;;3.50;;
982;SDS011;480;48.124;11.578;2022-07-29T12:58:33;2.67;;;2.47;;
982;SDS011;480;48.124;11.578;2022-07-29T13:01:06;3.20;;;3.00;;
982;SDS011;480;48.124;11.578;2022-07-29T13:06:28;3.37;;;3.07;;
982;SDS011;480;48.124;11.578;2022-07-29T13:09:04;2.93;;;2.73;;
982;SDS011;480;48.124;11.578;2022-07-29T13:11:34;4.77;;;3.03;;
982;SDS011;480;48.124;11.578;2022-07-29T13:14:03;3.10;;;2.90;;
982;SDS011;480;48.124;11.578;2022-07-29T13:16:30;4.13;;;2.40;;
982;SDS011;480;48.124;11.578;2022-07-29T13:19:05;2.77;;;2.57;;
982;SDS011;480;48.124;11.578;2022-07-29T13:21:34;5.10;;;3.20;;
982;SDS011;480;48.124;11.578;2022-07-29T13:24:01;5.60;;;2.50;;
982;SDS011;480;48.124;11.578;2022-07-29T13:26:29;3.27;;;2.97;;
982;SDS011;480;48.124;11.578;2022-07-29T13:28:56;3.67;;;2.73;;
982;SDS011;480;48.124;11.578;2022-07-29T13:31:25;3.40;;;3.10;;
982;SDS011;480;48.124;11.578;2022-07-29T13:33:52;2.67;;;2.47;;
982;SDS011;480;48.124;11.578;2022-07-29T13:36:19;8.23;;;3.67;;
982;SDS011;480;48.124;11.578;2022-07-29T13:38:46;3.13;;;2.93;;
982;SDS011;480;48.124;11.578;2022-07-29T13:41:13;2.70;;;2.50;;
982;SDS011;480;48.124;11.578;2022-07-29T13:43:40;3.30;;;2.90;;
982;SDS011;480;48.124;11.578;2022-07-29T13:46:07;3.43;;;3.13;;
982;SDS011;480;48.124;11.578;2022-07-29T13:48:36;8.23;;;3.60;;
982;SDS011;480;48.124;11.578;2022-07-29T13:51:03;3.20;;;3.00;;
982;SDS011;480;48.124;11.578;2022-07-29T13:53:30;3.43;;;2.93;;
982;SDS011;480;48.124;11.578;2022-07-29T13:55:57;2.63;;;2.43;;
982;SDS011;480;48.124;11.578;2022-07-29T13:58:25;4.00;;;3.43;;
982;SDS011;480;48.124;11.578;2022-07-29T14:00:52;3.13;;;2.73;;
982;SDS011;480;48.124;11.578;2022-07-29T14:03:19;4.07;;;3.77;;
982;SDS011;480;48.124;11.578;2022-07-29T14:05:48;3.70;;;2.87;;
982;SDS011;480;48.124;11.578;2022-07-29T14:08:15;3.13;;;2.80;;
982;SDS011;480;48.124;11.578;2022-07-29T14:10:42;4.00;;;3.07;;
982;SDS011;480;48.124;11.578;2022-07-29T14:13:09;2.93;;;2.63;;
982;SDS011;480;48.124;11.578;2022-07-29T14:15:36;3.53;;;3.23;;
982;SDS011;480;48.124;11.578;2022-07-29T14:18:03;3.37;;;3.17;;
982;SDS011;480;48.124;11.578;2022-07-29T14:20:30;3.03;;;2.83;;
982;SDS011;480;48.124;11.578;2022-07-29T14:22:59;3.00;;;2.80;;
982;SDS011;480;48.124;11.578;2022-07-29T14:25:26;3.07;;;2.87;;
982;SDS011;480;48.124;11.578;2022-07-29T14:27:53;3.30;;;2.90;;
982;SDS011;480;48.124;11.578;2022-07-29T14:30:20;3.87;;;2.33;;
982;SDS011;480;48.124;11.578;2022-07-29T14:32:47;2.50;;;2.30;;
982;SDS011;480;48.124;11.578;2022-07-29T14:35:15;3.00;;;2.80;;
982;SDS011;480;48.124;11.578;2022-07-29T14:37:42;2.60;;;2.40;;
982;SDS011;480;48.124;11.578;2022-07-29T14:40:11;6.00;;;2.97;;
982;SDS011;480;48.124;11.578;2022-07-29T14:42:38;2.70;;;2.50;;
982;SDS011;480;48.124;11.578;2022-07-29T14:45:07;2.50;;;2.40;;
982;SDS011;480;48.124;11.578;2022-07-29T14:47:34;3.33;;;2.43;;
982;SDS011;480;48.124;11.578;2022-07-29T14:50:02;2.50;;;2.30;;
982;SDS011;480;48.124;11.578;2022-07-29T14:52:30;2.33;;;2.23;;
982;SDS011;480;48.124;11.578;2022-07-29T14:54:58;3.70;;;2.67;;
982;SDS011;480;48.124;11.578;2022-07-29T14:57:26;3.30;;;3.10;;
982;SDS011;480;48.124;11.578;2022-07-29T14:59:53;2.87;;;2.67;;
982;SDS011;480;48.124;11.578;2022-07-29T15:02:21;2.90;;;2.23;;
982;SDS011;480;48.124;11.578;2022-07-29T15:04:48;2.27;;;2.17;;
982;SDS011;480;48.124;11.578;2022-07-29T15:07:15;2.70;;;2.20;;
982;SDS011;480;48.124;11.578;2022-07-29T15:09:42;2.50;;;2.40;;
982;SDS011;480;48.124;11.578;2022-07-29T15:12:10;2.67;;;2.47;;
982;SDS011;480;48.124;11.578;2022-07-29T15:14:39;3.13;;;2.83;;
982;SDS011;480;48.124;11.578;2022-07-29T15:17:06;2.70;;;2.50;;
982;SDS011;480;48.124;11.578;2022-07-29T15:19:33;2.20;;;2.10;;
982;SDS011;480;48.124;11.578;2022-07-29T15:22:01;2.40;;;2.30;;
982;SDS011;480;48.124;11.578;2022-07-29T15:24:29;2.67;;;2.57;;
982;SDS011;480;48.124;11.578;2022-07-29T15:26:56;2.63;;;2.47;;
982;SDS011;480;48.124;11.578;2022-07-29T15:29:23;2.50;;;2.30;;
982;SDS011;480;48.124;11.578;2022-07-29T15:31:52;3.30;;;2.60;;
982;SDS011;480;48.124;11.578;2022-07-29T15:34:20;2.97;;;2.67;;
982;SDS011;480;48.124;11.578;2022-07-29T15:36:48;3.37;;;3.00;;
982;SDS011;480;48.124;11.578;2022-07-29T15:39:15;4.87;;;2.70;;
982;SDS011;480;48.124;11.578;2022-07-29T15:41:43;3.17;;;2.90;;
982;SDS011;480;48.124;11.578;2022-07-29T15:44:10;3.13;;;2.93;;
982;SDS011;480;48.124;11.578;2022-07-29T15:46:37;3.03;;;2.83;;
982;SDS011;480;48.124;11.578;2022-07-29T15:49:24;2.47;;;2.30;;
982;SDS011;480;48.124;11.578;2022-07-29T15:51:56;3.40;;;3.20;;
982;SDS011;480;48.124;11.578;2022-07-29T15:54:24;3.60;;;2.87;;
982;SDS011;480;48.124;11.578;2022-07-29T15:56:52;6.03;;;2.77;;
982;SDS011;480;48.124;11.578;2022-07-29T15:59:19;5.90;;;3.77;;
982;SDS011;480;48.124;11.578;2022-07-29T16:01:47;3.80;;;3.20;;
982;SDS011;480;48.124;11.578;2022-07-29T16:04:15;2.87;;;2.67;;
982;SDS011;480;48.124;11.578;2022-07-29T16:06:44;3.23;;;3.03;;
982;SDS011;480;48.124;11.578;2022-07-29T16:09:12;3.83;;;3.37;;